sensor_id;sensor_type;location;lat;lon;timestamp;P1;durP1;ratioP1;P2;durP2;ratioP2
24383;SDS011;12504;52.870;8.798;2023-06-04T00:00:47;3.45;;;1.40;;
24383;SDS011;12504;52.870;8.798;2023-06-04T00:03:13;3.60;;;1.65;;
24383;SDS011;12504;52.870;8.798;2023-06-04T00:05:38;2.92;;;1.67;;
24383;SDS011;12504;52.870;8.798;2023-06-04T00:08:04;5.80;;;2.40;;
24383;SDS011;12504;52.870;8.798;2023-06-04T00:10:30;3.78;;;1.90;;
24383;SDS011;12504;52.870;8.798;2023-06-04T00:12:57;6.43;;;1.80;;
24383;SDS011;12504;52.870;8.798;2023-06-04T00:15:23;6.45;;;1.67;;
24383;SDS011;12504;52.870;8.798;2023-06-04T00:17:49;6.60;;;2.60;;
24383;SDS011;12504;52.870;8.798;2023-06-04T00:20:16;4.15;;;1.60;;
24383;SDS011;12504;52.870;8.798;2023-06-04T00:22:42;3.60;;;1.83;;
24383;SDS011;12504;52.870;8.798;2023-06-04T00:25:08;4.68;;;1.85;;
24383;SDS011;12504;52.870;8.798;2023-06-04T00:27:35;6.10;;;2.42;;
24383;SDS011;12504;52.870;8.798;2023-06-04T00:30:01;4.50;;;1.77;;
24383;SDS011;12504;52.870;8.798;2023-06-04T00:32:27;6.45;;;1.90;;
24383;SDS011;12504;52.870;8.798;2023-06-04T00:34:54;4.13;;;1.80;;
24383;SDS011;12504;52.870;8.798;2023-06-04T00:37:24;3.85;;;1.70;;
24383;SDS011;12504;52.870;8.798;2023-06-04T00:39:50;2.80;;;1.58;;
24383;SDS011;12504;52.870;8.798;2023-06-04T00:42:17;4.97;;;2.13;;
24383;SDS011;12504;52.870;8.798;2023-06-04T00:44:47;4.60;;;2.03;;
24383;SDS011;12504;52.870;8.798;2023-06-04T00:47:13;2.85;;;1.70;;
24383;SDS011;12504;52.870;8.798;2023-06-04T00:49:40;5.28;;;2.15;;
24383;SDS011;12504;52.870;8.798;2023-06-04T00:52:07;3.97;;;2.00;;
24383;SDS011;12504;52.870;8.798;2023-06-04T00:54:34;8.02;;;2.15;;
24383;SDS011;12504;52.870;8.798;2023-06-04T00:57:01;3.13;;;1.85;;
24383;SDS011;12504;52.870;8.798;2023-06-04T00:59:28;3.33;;;1.77;;
24383;SDS011;12504;52.870;8.798;2023-06-04T01:02:13;7.30;;;3.13;;
24383;SDS011;12504;52.870;8.798;2023-06-04T01:07:36;3.28;;;1.77;;
24383;SDS011;12504;52.870;8.798;2023-06-04T01:10:02;2.90;;;1.88;;
24383;SDS011;12504;52.870;8.798;2023-06-04T01:12:28;4.43;;;2.05;;
24383;SDS011;12504;52.870;8.798;2023-06-04T01:14:56;2.08;;;1.63;;
24383;SDS011;12504;52.870;8.798;2023-06-04T01:17:30;3.00;;;1.90;;
24383;SDS011;12504;52.870;8.798;2023-06-04T01:20:07;6.68;;;3.55;;
24383;SDS011;12504;52.870;8.798;2023-06-04T01:23:25;2.47;;;1.73;;
24383;SDS011;12504;52.870;8.798;2023-06-04T01:25:59;4.30;;;1.90;;
24383;SDS011;12504;52.870;8.798;2023-06-04T01:28:28;7.88;;;1.80;;
24383;SDS011;12504;52.870;8.798;2023-06-04T01:30:58;2.25;;;1.50;;
24383;SDS011;12504;52.870;8.798;2023-06-04T01:33:26;4.40;;;2.35;;
24383;SDS011;12504;52.870;8.798;2023-06-04T01:35:53;5.32;;;1.80;;
24383;SDS011;12504;52.870;8.798;2023-06-04T01:38:19;4.95;;;1.90;;
24383;SDS011;12504;52.870;8.798;2023-06-04T01:40:45;6.47;;;2.55;;
24383;SDS011;12504;52.870;8.798;2023-06-04T01:43:11;7.13;;;2.30;;
24383;SDS011;12504;52.870;8.798;2023-06-04T01:45:37;7.00;;;2.40;;
24383;SDS011;12504;52.870;8.798;2023-06-04T01:48:03;4.78;;;1.58;;
24383;SDS011;12504;52.870;8.798;2023-06-04T01:50:30;5.38;;;2.10;;
24383;SDS011;12504;52.870;8.798;2023-06-04T01:52:56;3.35;;;2.28;;
24383;SDS011;12504;52.870;8.798;2023-06-04T01:55:22;3.80;;;1.73;;
24383;SDS011;12504;52.870;8.798;2023-06-04T01:57:53;5.95;;;2.22;;
24383;SDS011;12504;52.870;8.798;2023-06-04T02:00:19;2.88;;;2.15;;
24383;SDS011;12504;52.870;8.798;2023-06-04T02:02:45;5.03;;;2.78;;
24383;SDS011;12504;52.870;8.798;2023-06-04T02:05:13;6.65;;;2.33;;
24383;SDS011;12504;52.870;8.798;2023-06-04T02:07:43;2.95;;;1.75;;
24383;SDS011;12504;52.870;8.798;2023-06-04T02:10:11;5.65;;;2.60;;
24383;SDS011;12504;52.870;8.798;2023-06-04T02:12:38;3.70;;;2.10;;
24383;SDS011;12504;52.870;8.798;2023-06-04T02:15:06;6.30;;;3.03;;
24383;SDS011;12504;52.870;8.798;2023-06-04T02:17:34;4.20;;;2.20;;
24383;SDS011;12504;52.870;8.798;2023-06-04T02:20:05;7.05;;;3.75;;
24383;SDS011;12504;52.870;8.798;2023-06-04T02:22:31;6.22;;;2.35;;
24383;SDS011;12504;52.870;8.798;2023-06-04T02:24:59;5.30;;;1.95;;
24383;SDS011;12504;52.870;8.798;2023-06-04T02:27:25;5.28;;;3.63;;
24383;SDS011;12504;52.870;8.798;2023-06-04T02:29:50;3.90;;;2.15;;
24383;SDS011;12504;52.870;8.798;2023-06-04T02:32:16;6.05;;;2.33;;
24383;SDS011;12504;52.870;8.798;2023-06-04T02:34:42;2.30;;;1.90;;
24383;SDS011;12504;52.870;8.798;2023-06-04T02:37:07;4.00;;;2.30;;
24383;SDS011;12504;52.870;8.798;2023-06-04T02:39:33;6.53;;;2.83;;
24383;SDS011;12504;52.870;8.798;2023-06-04T02:41:59;3.47;;;2.05;;
24383;SDS011;12504;52.870;8.798;2023-06-04T02:44:24;7.55;;;2.90;;
24383;SDS011;12504;52.870;8.798;2023-06-04T02:46:50;4.40;;;2.65;;
24383;SDS011;12504;52.870;8.798;2023-06-04T02:49:16;7.63;;;2.55;;
24383;SDS011;12504;52.870;8.798;2023-06-04T02:51:42;6.95;;;2.63;;
24383;SDS011;12504;52.870;8.798;2023-06-04T02:54:09;5.38;;;2.40;;
24383;SDS011;12504;52.870;8.798;2023-06-04T02:56:36;6.63;;;2.15;;
24383;SDS011;12504;52.870;8.798;2023-06-04T02:59:05;4.72;;;2.47;;
24383;SDS011;12504;52.870;8.798;2023-06-04T03:01:32;7.50;;;3.03;;
24383;SDS011;12504;52.870;8.798;2023-06-04T03:03:58;4.68;;;2.28;;
24383;SDS011;12504;52.870;8.798;2023-06-04T03:06:24;4.32;;;2.47;;
24383;SDS011;12504;52.870;8.798;2023-06-04T03:08:49;5.55;;;2.47;;
24383;SDS011;12504;52.870;8.798;2023-06-04T03:11:19;3.97;;;2.45;;
24383;SDS011;12504;52.870;8.798;2023-06-04T03:13:48;5.30;;;2.75;;
24383;SDS011;12504;52.870;8.798;2023-06-04T03:16:14;5.10;;;2.15;;
24383;SDS011;12504;52.870;8.798;2023-06-04T03:18:41;4.68;;;2.50;;
24383;SDS011;12504;52.870;8.798;2023-06-04T03:21:07;3.97;;;2.17;;
24383;SDS011;12504;52.870;8.798;2023-06-04T03:23:34;5.25;;;2.30;;
24383;SDS011;12504;52.870;8.798;2023-06-04T03:26:04;5.80;;;2.78;;
24383;SDS011;12504;52.870;8.798;2023-06-04T03:28:33;4.43;;;3.15;;
24383;SDS011;12504;52.870;8.798;2023-06-04T03:31:03;4.45;;;2.53;;
24383;SDS011;12504;52.870;8.798;2023-06-04T03:33:29;4.85;;;2.20;;
24383;SDS011;12504;52.870;8.798;2023-06-04T03:35:54;8.65;;;3.10;;
24383;SDS011;12504;52.870;8.798;2023-06-04T03:38:24;5.43;;;2.65;;
24383;SDS011;12504;52.870;8.798;2023-06-04T03:40:50;8.07;;;2.63;;
24383;SDS011;12504;52.870;8.798;2023-06-04T03:43:18;13.77;;;3.00;;
24383;SDS011;12504;52.870;8.798;2023-06-04T03:45:48;4.90;;;2.83;;
24383;SDS011;12504;52.870;8.798;2023-06-04T03:48:14;5.63;;;2.80;;
24383;SDS011;12504;52.870;8.798;2023-06-04T03:50:41;7.82;;;2.80;;
24383;SDS011;12504;52.870;8.798;2023-06-04T03:53:07;5.63;;;3.00;;
24383;SDS011;12504;52.870;8.798;2023-06-04T03:55:34;7.80;;;2.45;;
24383;SDS011;12504;52.870;8.798;2023-06-04T03:58:02;6.53;;;2.65;;
24383;SDS011;12504;52.870;8.798;2023-06-04T04:00:28;8.30;;;2.53;;
24383;SDS011;12504;52.870;8.798;2023-06-04T04:02:57;5.32;;;2.58;;
24383;SDS011;12504;52.870;8.798;2023-06-04T04:05:27;4.78;;;2.55;;
24383;SDS011;12504;52.870;8.798;2023-06-04T04:07:53;4.57;;;2.60;;
24383;SDS011;12504;52.870;8.798;2023-06-04T04:10:23;5.32;;;2.72;;
24383;SDS011;12504;52.870;8.798;2023-06-04T04:12:49;7.03;;;3.08;;
24383;SDS011;12504;52.870;8.798;2023-06-04T04:15:18;8.07;;;3.17;;
24383;SDS011;12504;52.870;8.798;2023-06-04T04:17:44;5.97;;;2.90;;
24383;SDS011;12504;52.870;8.798;2023-06-04T04:20:10;5.18;;;2.70;;
24383;SDS011;12504;52.870;8.798;2023-06-04T04:22:41;5.20;;;3.15;;
24383;SDS011;12504;52.870;8.798;2023-06-04T04:25:08;8.40;;;4.47;;
24383;SDS011;12504;52.870;8.798;2023-06-04T04:27:35;6.75;;;2.70;;
24383;SDS011;12504;52.870;8.798;2023-06-04T04:30:06;8.15;;;3.60;;
24383;SDS011;12504;52.870;8.798;2023-06-04T04:32:33;5.72;;;3.33;;
24383;SDS011;12504;52.870;8.798;2023-06-04T04:34:58;4.05;;;2.38;;
24383;SDS011;12504;52.870;8.798;2023-06-04T04:37:31;5.10;;;2.53;;
24383;SDS011;12504;52.870;8.798;2023-06-04T04:39:58;7.43;;;2.97;;
24383;SDS011;12504;52.870;8.798;2023-06-04T04:42:26;4.50;;;2.85;;
24383;SDS011;12504;52.870;8.798;2023-06-04T04:44:52;7.10;;;4.22;;
24383;SDS011;12504;52.870;8.798;2023-06-04T04:47:21;6.93;;;2.53;;
24383;SDS011;12504;52.870;8.798;2023-06-04T04:49:47;5.53;;;2.70;;
24383;SDS011;12504;52.870;8.798;2023-06-04T04:52:14;7.78;;;3.22;;
24383;SDS011;12504;52.870;8.798;2023-06-04T04:54:41;12.50;;;4.18;;
24383;SDS011;12504;52.870;8.798;2023-06-04T04:57:07;4.80;;;2.65;;
24383;SDS011;12504;52.870;8.798;2023-06-04T04:59:34;6.25;;;3.38;;
24383;SDS011;12504;52.870;8.798;2023-06-04T05:02:00;3.90;;;2.72;;
24383;SDS011;12504;52.870;8.798;2023-06-04T05:04:26;5.60;;;2.60;;
24383;SDS011;12504;52.870;8.798;2023-06-04T05:06:52;8.77;;;3.13;;
24383;SDS011;12504;52.870;8.798;2023-06-04T05:09:19;11.75;;;3.03;;
24383;SDS011;12504;52.870;8.798;2023-06-04T05:11:45;7.82;;;3.17;;
24383;SDS011;12504;52.870;8.798;2023-06-04T05:14:11;8.77;;;3.10;;
24383;SDS011;12504;52.870;8.798;2023-06-04T05:16:38;5.35;;;2.55;;
24383;SDS011;12504;52.870;8.798;2023-06-04T05:19:06;8.63;;;2.72;;
24383;SDS011;12504;52.870;8.798;2023-06-04T05:21:35;7.15;;;2.42;;
24383;SDS011;12504;52.870;8.798;2023-06-04T05:24:04;4.53;;;2.58;;
24383;SDS011;12504;52.870;8.798;2023-06-04T05:26:33;6.22;;;3.85;;
24383;SDS011;12504;52.870;8.798;2023-06-04T05:29:05;6.88;;;2.70;;
24383;SDS011;12504;52.870;8.798;2023-06-04T05:31:35;4.75;;;2.78;;
24383;SDS011;12504;52.870;8.798;2023-06-04T05:34:03;5.28;;;2.83;;
24383;SDS011;12504;52.870;8.798;2023-06-04T05:36:30;9.68;;;3.33;;
24383;SDS011;12504;52.870;8.798;2023-06-04T05:38:59;8.27;;;3.15;;
24383;SDS011;12504;52.870;8.798;2023-06-04T05:41:32;5.13;;;3.10;;
24383;SDS011;12504;52.870;8.798;2023-06-04T05:44:00;7.78;;;3.05;;
24383;SDS011;12504;52.870;8.798;2023-06-04T05:46:27;7.38;;;2.90;;
24383;SDS011;12504;52.870;8.798;2023-06-04T05:48:53;7.18;;;3.40;;
24383;SDS011;12504;52.870;8.798;2023-06-04T05:51:20;5.68;;;3.08;;
24383;SDS011;12504;52.870;8.798;2023-06-04T05:53:46;9.70;;;3.03;;
24383;SDS011;12504;52.870;8.798;2023-06-04T05:56:13;8.98;;;3.25;;
24383;SDS011;12504;52.870;8.798;2023-06-04T05:58:39;5.60;;;2.80;;
24383;SDS011;12504;52.870;8.798;2023-06-04T06:01:06;5.10;;;2.95;;
24383;SDS011;12504;52.870;8.798;2023-06-04T06:03:32;6.38;;;2.80;;
24383;SDS011;12504;52.870;8.798;2023-06-04T06:05:58;4.45;;;2.50;;
24383;SDS011;12504;52.870;8.798;2023-06-04T06:08:26;9.88;;;3.42;;
24383;SDS011;12504;52.870;8.798;2023-06-04T06:10:51;4.70;;;3.20;;
24383;SDS011;12504;52.870;8.798;2023-06-04T06:13:17;11.00;;;4.05;;
24383;SDS011;12504;52.870;8.798;2023-06-04T06:15:43;7.13;;;2.90;;
24383;SDS011;12504;52.870;8.798;2023-06-04T06:18:10;4.47;;;3.28;;
24383;SDS011;12504;52.870;8.798;2023-06-04T06:20:36;4.90;;;3.20;;
24383;SDS011;12504;52.870;8.798;2023-06-04T06:23:06;4.10;;;2.30;;
24383;SDS011;12504;52.870;8.798;2023-06-04T06:28:03;7.47;;;3.10;;
24383;SDS011;12504;52.870;8.798;2023-06-04T06:30:29;3.92;;;2.55;;
24383;SDS011;12504;52.870;8.798;2023-06-04T06:32:55;8.65;;;2.95;;
24383;SDS011;12504;52.870;8.798;2023-06-04T06:35:21;7.07;;;2.80;;
24383;SDS011;12504;52.870;8.798;2023-06-04T06:37:47;3.67;;;2.80;;
24383;SDS011;12504;52.870;8.798;2023-06-04T06:40:12;8.05;;;3.67;;
24383;SDS011;12504;52.870;8.798;2023-06-04T06:42:38;7.03;;;2.42;;
24383;SDS011;12504;52.870;8.798;2023-06-04T06:45:04;6.20;;;2.85;;
24383;SDS011;12504;52.870;8.798;2023-06-04T06:47:30;5.45;;;3.05;;
24383;SDS011;12504;52.870;8.798;2023-06-04T06:49:56;5.25;;;3.22;;
24383;SDS011;12504;52.870;8.798;2023-06-04T06:52:21;7.18;;;3.13;;
24383;SDS011;12504;52.870;8.798;2023-06-04T06:54:47;6.55;;;2.65;;
24383;SDS011;12504;52.870;8.798;2023-06-04T06:57:13;7.05;;;2.97;;
24383;SDS011;12504;52.870;8.798;2023-06-04T06:59:38;5.72;;;2.92;;
24383;SDS011;12504;52.870;8.798;2023-06-04T07:02:05;4.53;;;2.05;;
24383;SDS011;12504;52.870;8.798;2023-06-04T07:04:31;3.60;;;2.28;;
24383;SDS011;12504;52.870;8.798;2023-06-04T07:06:57;5.72;;;2.33;;
24383;SDS011;12504;52.870;8.798;2023-06-04T07:09:22;3.85;;;2.42;;
24383;SDS011;12504;52.870;8.798;2023-06-04T07:11:48;8.73;;;2.83;;
24383;SDS011;12504;52.870;8.798;2023-06-04T07:14:14;6.70;;;2.40;;
24383;SDS011;12504;52.870;8.798;2023-06-04T07:16:39;4.07;;;2.35;;
24383;SDS011;12504;52.870;8.798;2023-06-04T07:19:05;5.63;;;2.38;;
24383;SDS011;12504;52.870;8.798;2023-06-04T07:21:31;4.32;;;2.08;;
24383;SDS011;12504;52.870;8.798;2023-06-04T07:23:56;2.65;;;1.88;;
24383;SDS011;12504;52.870;8.798;2023-06-04T07:26:22;8.02;;;2.70;;
24383;SDS011;12504;52.870;8.798;2023-06-04T07:28:50;4.80;;;2.88;;
24383;SDS011;12504;52.870;8.798;2023-06-04T07:31:16;3.65;;;2.08;;
24383;SDS011;12504;52.870;8.798;2023-06-04T07:33:42;3.75;;;2.03;;
24383;SDS011;12504;52.870;8.798;2023-06-04T07:36:14;9.18;;;2.92;;
24383;SDS011;12504;52.870;8.798;2023-06-04T07:38:41;3.33;;;1.92;;
24383;SDS011;12504;52.870;8.798;2023-06-04T07:41:08;2.83;;;1.98;;
24383;SDS011;12504;52.870;8.798;2023-06-04T07:43:34;4.32;;;2.25;;
24383;SDS011;12504;52.870;8.798;2023-06-04T07:46:00;6.13;;;2.28;;
24383;SDS011;12504;52.870;8.798;2023-06-04T07:48:27;2.88;;;1.92;;
24383;SDS011;12504;52.870;8.798;2023-06-04T07:50:59;6.10;;;2.42;;
24383;SDS011;12504;52.870;8.798;2023-06-04T07:53:26;3.78;;;2.00;;
24383;SDS011;12504;52.870;8.798;2023-06-04T07:55:52;5.32;;;2.50;;
24383;SDS011;12504;52.870;8.798;2023-06-04T07:58:18;5.95;;;2.20;;
24383;SDS011;12504;52.870;8.798;2023-06-04T08:00:44;4.22;;;2.00;;
24383;SDS011;12504;52.870;8.798;2023-06-04T08:03:10;2.92;;;1.80;;
24383;SDS011;12504;52.870;8.798;2023-06-04T08:05:36;5.18;;;2.45;;
24383;SDS011;12504;52.870;8.798;2023-06-04T08:08:02;4.30;;;2.15;;
24383;SDS011;12504;52.870;8.798;2023-06-04T08:10:28;3.72;;;2.65;;
24383;SDS011;12504;52.870;8.798;2023-06-04T08:12:54;4.82;;;1.60;;
24383;SDS011;12504;52.870;8.798;2023-06-04T08:15:20;4.05;;;1.95;;
24383;SDS011;12504;52.870;8.798;2023-06-04T08:17:45;3.88;;;1.92;;
24383;SDS011;12504;52.870;8.798;2023-06-04T08:20:11;5.13;;;1.80;;
24383;SDS011;12504;52.870;8.798;2023-06-04T08:22:37;3.53;;;2.13;;
24383;SDS011;12504;52.870;8.798;2023-06-04T08:25:02;2.70;;;1.52;;
24383;SDS011;12504;52.870;8.798;2023-06-04T08:27:29;2.55;;;1.88;;
24383;SDS011;12504;52.870;8.798;2023-06-04T08:29:56;4.07;;;2.15;;
24383;SDS011;12504;52.870;8.798;2023-06-04T08:32:22;3.28;;;1.95;;
24383;SDS011;12504;52.870;8.798;2023-06-04T08:34:49;4.45;;;1.48;;
24383;SDS011;12504;52.870;8.798;2023-06-04T08:37:16;2.78;;;1.63;;
24383;SDS011;12504;52.870;8.798;2023-06-04T08:39:42;5.03;;;2.17;;
24383;SDS011;12504;52.870;8.798;2023-06-04T08:42:09;2.05;;;1.27;;
24383;SDS011;12504;52.870;8.798;2023-06-04T08:44:42;3.55;;;1.27;;
24383;SDS011;12504;52.870;8.798;2023-06-04T08:47:08;6.43;;;1.67;;
24383;SDS011;12504;52.870;8.798;2023-06-04T08:49:40;3.38;;;1.23;;
24383;SDS011;12504;52.870;8.798;2023-06-04T08:52:08;2.20;;;1.40;;
24383;SDS011;12504;52.870;8.798;2023-06-04T08:54:34;1.75;;;1.17;;
24383;SDS011;12504;52.870;8.798;2023-06-04T08:57:00;2.67;;;1.42;;
24383;SDS011;12504;52.870;8.798;2023-06-04T08:59:25;2.35;;;1.50;;
24383;SDS011;12504;52.870;8.798;2023-06-04T09:01:53;2.80;;;2.10;;
24383;SDS011;12504;52.870;8.798;2023-06-04T09:04:19;3.60;;;1.33;;
24383;SDS011;12504;52.870;8.798;2023-06-04T09:06:45;2.95;;;1.90;;
24383;SDS011;12504;52.870;8.798;2023-06-04T09:09:12;4.43;;;1.50;;
24383;SDS011;12504;52.870;8.798;2023-06-04T09:11:54;2.65;;;1.60;;
24383;SDS011;12504;52.870;8.798;2023-06-04T09:14:22;2.42;;;2.20;;
24383;SDS011;12504;52.870;8.798;2023-06-04T09:19:15;3.35;;;1.83;;
24383;SDS011;12504;52.870;8.798;2023-06-04T09:22:01;4.30;;;1.77;;
24383;SDS011;12504;52.870;8.798;2023-06-04T09:24:38;3.80;;;1.33;;
24383;SDS011;12504;52.870;8.798;2023-06-04T09:27:19;2.92;;;1.58;;
24383;SDS011;12504;52.870;8.798;2023-06-04T09:29:51;3.20;;;1.58;;
24383;SDS011;12504;52.870;8.798;2023-06-04T09:32:24;4.90;;;1.95;;
24383;SDS011;12504;52.870;8.798;2023-06-04T09:34:54;3.15;;;1.25;;
24383;SDS011;12504;52.870;8.798;2023-06-04T09:37:23;1.47;;;1.37;;
24383;SDS011;12504;52.870;8.798;2023-06-04T09:39:55;4.75;;;1.55;;
24383;SDS011;12504;52.870;8.798;2023-06-04T09:42:21;1.67;;;1.40;;
24383;SDS011;12504;52.870;8.798;2023-06-04T09:44:48;4.25;;;1.45;;
24383;SDS011;12504;52.870;8.798;2023-06-04T09:47:13;2.00;;;1.80;;
24383;SDS011;12504;52.870;8.798;2023-06-04T09:49:43;18.17;;;2.08;;
24383;SDS011;12504;52.870;8.798;2023-06-04T09:52:13;2.90;;;1.52;;
24383;SDS011;12504;52.870;8.798;2023-06-04T09:54:39;3.67;;;1.48;;
24383;SDS011;12504;52.870;8.798;2023-06-04T09:57:19;2.38;;;1.35;;
24383;SDS011;12504;52.870;8.798;2023-06-04T09:59:49;4.60;;;1.80;;
24383;SDS011;12504;52.870;8.798;2023-06-04T10:02:20;2.97;;;1.45;;
24383;SDS011;12504;52.870;8.798;2023-06-04T10:04:56;6.53;;;2.25;;
24383;SDS011;12504;52.870;8.798;2023-06-04T10:07:24;1.77;;;1.23;;
24383;SDS011;12504;52.870;8.798;2023-06-04T10:09:51;3.47;;;1.60;;
24383;SDS011;12504;52.870;8.798;2023-06-04T10:12:20;1.45;;;1.10;;
24383;SDS011;12504;52.870;8.798;2023-06-04T10:14:52;4.75;;;1.50;;
24383;SDS011;12504;52.870;8.798;2023-06-04T10:17:22;2.67;;;1.40;;
24383;SDS011;12504;52.870;8.798;2023-06-04T10:19:50;5.45;;;1.35;;
24383;SDS011;12504;52.870;8.798;2023-06-04T10:22:20;1.67;;;1.50;;
24383;SDS011;12504;52.870;8.798;2023-06-04T10:24:46;1.83;;;1.17;;
24383;SDS011;12504;52.870;8.798;2023-06-04T10:27:12;3.03;;;1.30;;
24383;SDS011;12504;52.870;8.798;2023-06-04T10:29:38;2.75;;;1.17;;
24383;SDS011;12504;52.870;8.798;2023-06-04T10:32:05;2.13;;;1.50;;
24383;SDS011;12504;52.870;8.798;2023-06-04T10:34:31;7.82;;;1.83;;
24383;SDS011;12504;52.870;8.798;2023-06-04T10:36:57;3.95;;;1.20;;
24383;SDS011;12504;52.870;8.798;2023-06-04T10:39:30;3.67;;;1.67;;
24383;SDS011;12504;52.870;8.798;2023-06-04T10:42:00;3.05;;;1.20;;
24383;SDS011;12504;52.870;8.798;2023-06-04T10:44:28;2.78;;;1.30;;
24383;SDS011;12504;52.870;8.798;2023-06-04T10:46:55;1.20;;;0.80;;
24383;SDS011;12504;52.870;8.798;2023-06-04T10:49:28;2.97;;;1.25;;
24383;SDS011;12504;52.870;8.798;2023-06-04T10:51:56;2.35;;;1.10;;
24383;SDS011;12504;52.870;8.798;2023-06-04T10:54:23;3.80;;;0.98;;
24383;SDS011;12504;52.870;8.798;2023-06-04T10:56:52;4.13;;;1.15;;
24383;SDS011;12504;52.870;8.798;2023-06-04T10:59:21;1.25;;;1.00;;
24383;SDS011;12504;52.870;8.798;2023-06-04T11:01:49;2.65;;;1.08;;
24383;SDS011;12504;52.870;8.798;2023-06-04T11:04:24;1.80;;;0.93;;
24383;SDS011;12504;52.870;8.798;2023-06-04T11:07:04;1.90;;;0.90;;
24383;SDS011;12504;52.870;8.798;2023-06-04T11:09:34;3.08;;;1.27;;
24383;SDS011;12504;52.870;8.798;2023-06-04T11:12:12;2.13;;;1.10;;
24383;SDS011;12504;52.870;8.798;2023-06-04T11:14:38;1.73;;;1.25;;
24383;SDS011;12504;52.870;8.798;2023-06-04T11:17:11;3.47;;;1.10;;
24383;SDS011;12504;52.870;8.798;2023-06-04T11:19:38;1.83;;;1.45;;
24383;SDS011;12504;52.870;8.798;2023-06-04T11:22:07;4.43;;;1.50;;
24383;SDS011;12504;52.870;8.798;2023-06-04T11:24:35;2.63;;;1.58;;
24383;SDS011;12504;52.870;8.798;2023-06-04T11:27:03;3.40;;;1.33;;
24383;SDS011;12504;52.870;8.798;2023-06-04T11:29:28;2.67;;;1.15;;
24383;SDS011;12504;52.870;8.798;2023-06-04T11:31:54;1.30;;;0.90;;
24383;SDS011;12504;52.870;8.798;2023-06-04T11:36:52;1.60;;;1.17;;
24383;SDS011;12504;52.870;8.798;2023-06-04T11:39:18;2.35;;;1.40;;
24383;SDS011;12504;52.870;8.798;2023-06-04T11:41:47;2.25;;;1.38;;
24383;SDS011;12504;52.870;8.798;2023-06-04T11:44:17;3.30;;;1.50;;
24383;SDS011;12504;52.870;8.798;2023-06-04T11:46:44;4.05;;;1.08;;
24383;SDS011;12504;52.870;8.798;2023-06-04T11:49:16;2.67;;;1.25;;
24383;SDS011;12504;52.870;8.798;2023-06-04T11:51:46;1.50;;;1.40;;
24383;SDS011;12504;52.870;8.798;2023-06-04T11:54:13;3.70;;;1.08;;
24383;SDS011;12504;52.870;8.798;2023-06-04T11:56:41;3.03;;;1.75;;
24383;SDS011;12504;52.870;8.798;2023-06-04T11:59:12;1.85;;;1.52;;
24383;SDS011;12504;52.870;8.798;2023-06-04T12:01:42;2.00;;;1.13;;
24383;SDS011;12504;52.870;8.798;2023-06-04T12:04:12;3.22;;;1.25;;
24383;SDS011;12504;52.870;8.798;2023-06-04T12:09:22;6.43;;;1.50;;
24383;SDS011;12504;52.870;8.798;2023-06-04T12:12:00;2.63;;;1.35;;
24383;SDS011;12504;52.870;8.798;2023-06-04T12:14:27;4.45;;;1.30;;
24383;SDS011;12504;52.870;8.798;2023-06-04T12:16:57;2.85;;;1.63;;
24383;SDS011;12504;52.870;8.798;2023-06-04T12:19:23;1.90;;;1.15;;
24383;SDS011;12504;52.870;8.798;2023-06-04T12:22:03;2.25;;;1.20;;
24383;SDS011;12504;52.870;8.798;2023-06-04T12:24:31;1.83;;;1.38;;
24383;SDS011;12504;52.870;8.798;2023-06-04T12:27:01;5.03;;;1.45;;
24383;SDS011;12504;52.870;8.798;2023-06-04T12:29:32;3.28;;;1.27;;
24383;SDS011;12504;52.870;8.798;2023-06-04T12:32:15;1.83;;;1.27;;
24383;SDS011;12504;52.870;8.798;2023-06-04T12:34:42;3.50;;;1.45;;
24383;SDS011;12504;52.870;8.798;2023-06-04T12:37:07;1.90;;;1.17;;
24383;SDS011;12504;52.870;8.798;2023-06-04T12:39:33;2.72;;;1.35;;
24383;SDS011;12504;52.870;8.798;2023-06-04T12:42:02;1.90;;;0.90;;
24383;SDS011;12504;52.870;8.798;2023-06-04T12:44:28;3.20;;;1.23;;
24383;SDS011;12504;52.870;8.798;2023-06-04T12:46:54;3.15;;;1.10;;
24383;SDS011;12504;52.870;8.798;2023-06-04T12:49:20;6.63;;;1.50;;
24383;SDS011;12504;52.870;8.798;2023-06-04T12:51:46;2.17;;;1.48;;
24383;SDS011;12504;52.870;8.798;2023-06-04T12:54:12;5.18;;;2.05;;
24383;SDS011;12504;52.870;8.798;2023-06-04T12:56:38;3.47;;;1.20;;
24383;SDS011;12504;52.870;8.798;2023-06-04T12:59:05;2.47;;;1.20;;
24383;SDS011;12504;52.870;8.798;2023-06-04T13:01:31;3.47;;;1.50;;
24383;SDS011;12504;52.870;8.798;2023-06-04T13:03:57;2.70;;;1.08;;
24383;SDS011;12504;52.870;8.798;2023-06-04T13:06:22;2.50;;;1.20;;
24383;SDS011;12504;52.870;8.798;2023-06-04T13:08:48;2.65;;;1.15;;
24383;SDS011;12504;52.870;8.798;2023-06-04T13:11:14;3.60;;;1.40;;
24383;SDS011;12504;52.870;8.798;2023-06-04T13:13:39;4.18;;;2.15;;
24383;SDS011;12504;52.870;8.798;2023-06-04T13:16:05;2.50;;;1.13;;
24383;SDS011;12504;52.870;8.798;2023-06-04T13:18:30;2.70;;;1.48;;
24383;SDS011;12504;52.870;8.798;2023-06-04T13:20:56;2.10;;;1.58;;
24383;SDS011;12504;52.870;8.798;2023-06-04T13:23:22;1.52;;;1.30;;
24383;SDS011;12504;52.870;8.798;2023-06-04T13:25:48;1.73;;;1.40;;
24383;SDS011;12504;52.870;8.798;2023-06-04T13:28:13;2.13;;;1.63;;
24383;SDS011;12504;52.870;8.798;2023-06-04T13:30:40;3.17;;;1.25;;
24383;SDS011;12504;52.870;8.798;2023-06-04T13:33:06;1.90;;;1.02;;
24383;SDS011;12504;52.870;8.798;2023-06-04T13:35:32;2.55;;;1.02;;
24383;SDS011;12504;52.870;8.798;2023-06-04T13:37:57;1.70;;;1.00;;
24383;SDS011;12504;52.870;8.798;2023-06-04T13:40:23;3.22;;;1.50;;
24383;SDS011;12504;52.870;8.798;2023-06-04T13:42:49;3.50;;;1.33;;
24383;SDS011;12504;52.870;8.798;2023-06-04T13:45:15;3.70;;;1.10;;
24383;SDS011;12504;52.870;8.798;2023-06-04T13:47:42;3.40;;;1.55;;
24383;SDS011;12504;52.870;8.798;2023-06-04T13:50:08;6.10;;;1.63;;
24383;SDS011;12504;52.870;8.798;2023-06-04T13:52:34;6.57;;;1.80;;
24383;SDS011;12504;52.870;8.798;2023-06-04T13:54:59;2.50;;;1.40;;
24383;SDS011;12504;52.870;8.798;2023-06-04T13:57:25;4.40;;;1.63;;
24383;SDS011;12504;52.870;8.798;2023-06-04T13:59:52;2.95;;;1.73;;
24383;SDS011;12504;52.870;8.798;2023-06-04T14:02:18;4.00;;;1.67;;
24383;SDS011;12504;52.870;8.798;2023-06-04T14:04:44;5.78;;;2.00;;
24383;SDS011;12504;52.870;8.798;2023-06-04T14:07:10;2.80;;;1.67;;
24383;SDS011;12504;52.870;8.798;2023-06-04T14:09:35;2.80;;;1.50;;
24383;SDS011;12504;52.870;8.798;2023-06-04T14:12:01;5.68;;;1.92;;
24383;SDS011;12504;52.870;8.798;2023-06-04T14:14:28;3.72;;;1.95;;
24383;SDS011;12504;52.870;8.798;2023-06-04T14:17:01;3.15;;;1.65;;
24383;SDS011;12504;52.870;8.798;2023-06-04T14:19:27;4.30;;;1.63;;
24383;SDS011;12504;52.870;8.798;2023-06-04T14:21:53;4.45;;;1.88;;
24383;SDS011;12504;52.870;8.798;2023-06-04T14:24:19;5.22;;;2.00;;
24383;SDS011;12504;52.870;8.798;2023-06-04T14:26:44;3.65;;;1.50;;
24383;SDS011;12504;52.870;8.798;2023-06-04T14:29:10;2.38;;;1.25;;
24383;SDS011;12504;52.870;8.798;2023-06-04T14:31:36;2.85;;;1.52;;
24383;SDS011;12504;52.870;8.798;2023-06-04T14:34:02;3.90;;;2.00;;
24383;SDS011;12504;52.870;8.798;2023-06-04T14:36:28;8.77;;;2.65;;
24383;SDS011;12504;52.870;8.798;2023-06-04T14:38:56;4.28;;;2.03;;
24383;SDS011;12504;52.870;8.798;2023-06-04T14:41:21;5.65;;;2.38;;
24383;SDS011;12504;52.870;8.798;2023-06-04T14:43:47;2.92;;;1.83;;
24383;SDS011;12504;52.870;8.798;2023-06-04T14:46:12;5.38;;;1.77;;
24383;SDS011;12504;52.870;8.798;2023-06-04T14:48:38;8.32;;;2.22;;
24383;SDS011;12504;52.870;8.798;2023-06-04T14:51:03;4.38;;;2.00;;
24383;SDS011;12504;52.870;8.798;2023-06-04T14:53:29;6.03;;;2.00;;
24383;SDS011;12504;52.870;8.798;2023-06-04T14:55:55;3.63;;;1.98;;
24383;SDS011;12504;52.870;8.798;2023-06-04T14:58:21;4.60;;;2.20;;
24383;SDS011;12504;52.870;8.798;2023-06-04T15:00:46;3.25;;;1.60;;
24383;SDS011;12504;52.870;8.798;2023-06-04T15:03:12;4.85;;;2.10;;